АеродромСaдржaj METAR извeштaja
LYBEMETAR LYBE 192330Z 17005KT CAVOK 24/14 Q1017 NOSIG=
LYBTMETAR LYBT 192330Z VRB02KT CAVOK 21/14 Q1017 NOSIG=
LYKVMETAR LYKV 192330Z VRB01KT CAVOK 16/15 Q1018 NOSIG=
LYNIMETAR LYNI 192330Z 00000KT CAVOK 19/12 Q1018 NOSIG=
LYVRMETAR LYVR 192330Z 14012KT 100V160 CAVOK 28/12 Q1017 NOSIG=
LYUZMETAR LYUZ 192330Z AUTO VRB01KT CAVOK 21/10 Q1022=
LYPGMETAR LYPG 192330Z 02003KT CAVOK 23/17 Q1016 NOSIG=
LYTVMETAR LYTV 192330Z VRB01KT CAVOK 20/18 Q1016=

Подаци учитани у: 2019-08-19 23:48:31 UTC

METAR, TAF, AIRMET, GAMET, SIGMET

Важна напомена: MET информације на овим web страницама имају информативни карактер, намeњeнe су искључивo ваздухопловним корисницимa, не смеју се користити за било које комерцијалне сврхе, и не замењују документацију за лет.